sensor_id;sensor_type;location;lat;lon;timestamp;pressure;altitude;pressure_sealevel;temperature;humidity
12969;BME280;6549;53.128;8.182;2023-01-25T00:00:38;103572.09;;;-0.49;100.00
12969;BME280;6549;53.128;8.182;2023-01-25T00:03:39;103569.78;;;-0.57;100.00
12969;BME280;6549;53.128;8.182;2023-01-25T00:06:39;103565.69;;;-0.60;100.00
12969;BME280;6549;53.128;8.182;2023-01-25T00:09:39;103569.69;;;-0.62;100.00
12969;BME280;6549;53.128;8.182;2023-01-25T00:12:39;103559.69;;;-0.62;100.00
12969;BME280;6549;53.128;8.182;2023-01-25T00:15:40;103560.06;;;-0.58;100.00
12969;BME280;6549;53.128;8.182;2023-01-25T00:18:40;103556.53;;;-0.59;100.00
12969;BME280;6549;53.128;8.182;2023-01-25T00:21:40;103550.06;;;-0.58;100.00
12969;BME280;6549;53.128;8.182;2023-01-25T00:24:41;103543.59;;;-0.57;100.00
12969;BME280;6549;53.128;8.182;2023-01-25T00:27:41;103542.75;;;-0.57;100.00
12969;BME280;6549;53.128;8.182;2023-01-25T00:30:41;103534.44;;;-0.56;100.00
12969;BME280;6549;53.128;8.182;2023-01-25T00:34:00;103532.53;;;-0.72;100.00
12969;BME280;6549;53.128;8.182;2023-01-25T00:40:05;103530.88;;;-0.73;100.00
12969;BME280;6549;53.128;8.182;2023-01-25T00:43:06;103533.25;;;-0.76;100.00
12969;BME280;6549;53.128;8.182;2023-01-25T00:46:08;103531.94;;;-0.74;100.00
12969;BME280;6549;53.128;8.182;2023-01-25T00:49:27;103532.75;;;-0.73;100.00
12969;BME280;6549;53.128;8.182;2023-01-25T00:52:30;103530.88;;;-0.73;100.00
12969;BME280;6549;53.128;8.182;2023-01-25T00:55:30;103525.47;;;-0.73;100.00
12969;BME280;6549;53.128;8.182;2023-01-25T00:58:30;103529.22;;;-0.74;100.00
12969;BME280;6549;53.128;8.182;2023-01-25T01:01:31;103532.03;;;-0.69;100.00
12969;BME280;6549;53.128;8.182;2023-01-25T01:04:31;103528.13;;;-0.61;100.00
12969;BME280;6549;53.128;8.182;2023-01-25T01:07:31;103520.22;;;-0.79;100.00
12969;BME280;6549;53.128;8.182;2023-01-25T01:10:32;103517.78;;;-0.81;100.00
12969;BME280;6549;53.128;8.182;2023-01-25T01:13:33;103505.91;;;-0.80;100.00
12969;BME280;6549;53.128;8.182;2023-01-25T01:16:34;103509.19;;;-0.78;100.00
12969;BME280;6549;53.128;8.182;2023-01-25T01:19:34;103500.75;;;-0.81;100.00
12969;BME280;6549;53.128;8.182;2023-01-25T01:22:34;103509.19;;;-0.78;100.00
12969;BME280;6549;53.128;8.182;2023-01-25T01:25:35;103508.63;;;-0.80;100.00
12969;BME280;6549;53.128;8.182;2023-01-25T01:28:35;103517.78;;;-0.81;100.00
12969;BME280;6549;53.128;8.182;2023-01-25T01:31:38;103515.41;;;-0.77;100.00
12969;BME280;6549;53.128;8.182;2023-01-25T01:34:38;103511.66;;;-0.76;100.00
12969;BME280;6549;53.128;8.182;2023-01-25T01:37:40;103514.34;;;-0.76;100.00
12969;BME280;6549;53.128;8.182;2023-01-25T01:40:45;103513.75;;;-0.78;100.00
12969;BME280;6549;53.128;8.182;2023-01-25T01:43:46;103506.47;;;-0.78;100.00
12969;BME280;6549;53.128;8.182;2023-01-25T01:46:52;103509.59;;;-0.69;100.00
12969;BME280;6549;53.128;8.182;2023-01-25T01:50:02;103495.06;;;-0.68;100.00
12969;BME280;6549;53.128;8.182;2023-01-25T01:53:03;103485.06;;;-0.68;100.00
12969;BME280;6549;53.128;8.182;2023-01-25T01:56:07;103480.00;;;-0.64;100.00
12969;BME280;6549;53.128;8.182;2023-01-25T01:59:08;103479.19;;;-0.65;100.00
12969;BME280;6549;53.128;8.182;2023-01-25T02:02:09;103487.50;;;-0.66;100.00
12969;BME280;6549;53.128;8.182;2023-01-25T02:05:19;103484.16;;;-0.57;100.00
12969;BME280;6549;53.128;8.182;2023-01-25T02:11:26;103477.78;;;-0.67;100.00
12969;BME280;6549;53.128;8.182;2023-01-25T02:14:27;103480.72;;;-0.69;100.00
12969;BME280;6549;53.128;8.182;2023-01-25T02:17:31;103481.31;;;-0.67;100.00
12969;BME280;6549;53.128;8.182;2023-01-25T02:20:41;103473.63;;;-0.58;100.00
12969;BME280;6549;53.128;8.182;2023-01-25T02:24:00;103470.03;;;-0.64;100.00
12969;BME280;6549;53.128;8.182;2023-01-25T02:27:03;103467.22;;;-0.69;100.00
12969;BME280;6549;53.128;8.182;2023-01-25T02:30:04;103455.03;;;-0.71;100.00
12969;BME280;6549;53.128;8.182;2023-01-25T02:33:04;103444.47;;;-0.73;100.00
12969;BME280;6549;53.128;8.182;2023-01-25T02:39:12;103422.28;;;-0.75;100.00
12969;BME280;6549;53.128;8.182;2023-01-25T02:42:15;103426.63;;;-0.74;100.00
12969;BME280;6549;53.128;8.182;2023-01-25T02:45:16;103419.13;;;-0.72;100.00
12969;BME280;6549;53.128;8.182;2023-01-25T02:48:19;103411.03;;;-0.72;100.00
12969;BME280;6549;53.128;8.182;2023-01-25T02:51:20;103410.75;;;-0.70;100.00
12969;BME280;6549;53.128;8.182;2023-01-25T02:54:22;103412.06;;;-0.73;100.00
12969;BME280;6549;53.128;8.182;2023-01-25T02:57:23;103416.16;;;-0.70;100.00
12969;BME280;6549;53.128;8.182;2023-01-25T03:00:23;103413.72;;;-0.72;100.00
12969;BME280;6549;53.128;8.182;2023-01-25T03:03:23;103407.81;;;-0.69;100.00
12969;BME280;6549;53.128;8.182;2023-01-25T03:06:24;103405.03;;;-0.74;100.00
12969;BME280;6549;53.128;8.182;2023-01-25T03:09:24;103405.84;;;-0.73;100.00
12969;BME280;6549;53.128;8.182;2023-01-25T03:12:25;103410.44;;;-0.74;100.00
12969;BME280;6549;53.128;8.182;2023-01-25T03:15:25;103415.84;;;-0.74;100.00
12969;BME280;6549;53.128;8.182;2023-01-25T03:18:26;103412.56;;;-0.76;100.00
12969;BME280;6549;53.128;8.182;2023-01-25T03:21:26;103411.97;;;-0.78;100.00
12969;BME280;6549;53.128;8.182;2023-01-25T03:24:27;103410.34;;;-0.79;100.00
12969;BME280;6549;53.128;8.182;2023-01-25T03:27:29;103406.34;;;-0.76;100.00
12969;BME280;6549;53.128;8.182;2023-01-25T03:30:29;103406.81;;;-0.79;100.00
12969;BME280;6549;53.128;8.182;2023-01-25T03:33:29;103406.03;;;-0.80;100.00
12969;BME280;6549;53.128;8.182;2023-01-25T03:36:30;103400.63;;;-0.80;100.00
12969;BME280;6549;53.128;8.182;2023-01-25T03:39:30;103390.88;;;-0.81;100.00
12969;BME280;6549;53.128;8.182;2023-01-25T03:42:30;103394.88;;;-0.83;100.00
12969;BME280;6549;53.128;8.182;2023-01-25T03:45:30;103389.84;;;-0.80;100.00
12969;BME280;6549;53.128;8.182;2023-01-25T03:48:31;103391.34;;;-0.84;100.00
12969;BME280;6549;53.128;8.182;2023-01-25T03:51:31;103395.13;;;-0.85;100.00
12969;BME280;6549;53.128;8.182;2023-01-25T03:54:32;103385.41;;;-0.86;100.00
12969;BME280;6549;53.128;8.182;2023-01-25T03:57:32;103386.44;;;-0.87;100.00
12969;BME280;6549;53.128;8.182;2023-01-25T04:00:32;103381.06;;;-0.87;100.00
12969;BME280;6549;53.128;8.182;2023-01-25T04:03:33;103376.72;;;-0.88;100.00
12969;BME280;6549;53.128;8.182;2023-01-25T04:06:33;103375.88;;;-0.88;100.00
12969;BME280;6549;53.128;8.182;2023-01-25T04:09:34;103380.00;;;-0.86;100.00
12969;BME280;6549;53.128;8.182;2023-01-25T04:12:34;103366.75;;;-0.87;100.00
12969;BME280;6549;53.128;8.182;2023-01-25T04:15:35;103367.78;;;-0.88;100.00
12969;BME280;6549;53.128;8.182;2023-01-25T04:18:36;103376.38;;;-0.92;100.00
12969;BME280;6549;53.128;8.182;2023-01-25T04:21:36;103370.66;;;-0.95;100.00
12969;BME280;6549;53.128;8.182;2023-01-25T04:24:36;103367.38;;;-0.97;100.00
12969;BME280;6549;53.128;8.182;2023-01-25T04:27:37;103364.63;;;-1.02;100.00
12969;BME280;6549;53.128;8.182;2023-01-25T04:30:37;103367.56;;;-1.04;100.00
12969;BME280;6549;53.128;8.182;2023-01-25T04:33:37;103355.34;;;-1.06;100.00
12969;BME280;6549;53.128;8.182;2023-01-25T04:36:38;103360.28;;;-1.03;100.00
12969;BME280;6549;53.128;8.182;2023-01-25T04:39:38;103353.47;;;-1.06;100.00
12969;BME280;6549;53.128;8.182;2023-01-25T04:42:38;103352.41;;;-1.05;100.00
12969;BME280;6549;53.128;8.182;2023-01-25T04:45:39;103347.84;;;-1.04;100.00
12969;BME280;6549;53.128;8.182;2023-01-25T04:48:39;103339.97;;;-1.06;100.00
12969;BME280;6549;53.128;8.182;2023-01-25T04:51:39;103345.38;;;-1.06;100.00
12969;BME280;6549;53.128;8.182;2023-01-25T04:54:40;103338.69;;;-1.03;100.00
12969;BME280;6549;53.128;8.182;2023-01-25T04:57:40;103332.16;;;-1.07;100.00
12969;BME280;6549;53.128;8.182;2023-01-25T05:00:41;103330.28;;;-1.07;100.00
12969;BME280;6549;53.128;8.182;2023-01-25T05:03:41;103341.06;;;-1.07;100.00
12969;BME280;6549;53.128;8.182;2023-01-25T05:06:41;103332.47;;;-1.04;100.00
12969;BME280;6549;53.128;8.182;2023-01-25T05:09:41;103338.38;;;-1.07;100.00
12969;BME280;6549;53.128;8.182;2023-01-25T05:12:42;103328.63;;;-1.08;100.00
12969;BME280;6549;53.128;8.182;2023-01-25T05:15:42;103328.94;;;-1.04;100.00
12969;BME280;6549;53.128;8.182;2023-01-25T05:18:42;103332.22;;;-1.02;100.00
12969;BME280;6549;53.128;8.182;2023-01-25T05:21:43;103328.22;;;-1.00;100.00
12969;BME280;6549;53.128;8.182;2023-01-25T05:24:58;103321.50;;;-0.97;100.00
12969;BME280;6549;53.128;8.182;2023-01-25T05:28:06;103331.97;;;-1.01;100.00
12969;BME280;6549;53.128;8.182;2023-01-25T05:31:06;103328.38;;;-1.06;100.00
12969;BME280;6549;53.128;8.182;2023-01-25T05:34:08;103328.38;;;-1.06;100.00
12969;BME280;6549;53.128;8.182;2023-01-25T05:37:11;103329.91;;;-1.10;100.00
12969;BME280;6549;53.128;8.182;2023-01-25T05:40:12;103322.66;;;-1.10;100.00
12969;BME280;6549;53.128;8.182;2023-01-25T05:43:12;103321.03;;;-1.11;100.00
12969;BME280;6549;53.128;8.182;2023-01-25T05:46:12;103321.75;;;-1.15;100.00
12969;BME280;6549;53.128;8.182;2023-01-25T05:49:13;103319.63;;;-1.13;100.00
12969;BME280;6549;53.128;8.182;2023-01-25T05:52:15;103317.75;;;-1.13;100.00
12969;BME280;6549;53.128;8.182;2023-01-25T05:55:16;103313.91;;;-1.17;100.00
12969;BME280;6549;53.128;8.182;2023-01-25T05:58:16;103309.78;;;-1.19;100.00
12969;BME280;6549;53.128;8.182;2023-01-25T06:01:16;103311.44;;;-1.18;100.00
12969;BME280;6549;53.128;8.182;2023-01-25T06:04:17;103312.75;;;-1.21;100.00
12969;BME280;6549;53.128;8.182;2023-01-25T06:07:17;103310.63;;;-1.19;100.00
12969;BME280;6549;53.128;8.182;2023-01-25T06:10:17;103307.44;;;-1.16;100.00
12969;BME280;6549;53.128;8.182;2023-01-25T06:13:18;103310.47;;;-1.12;100.00
12969;BME280;6549;53.128;8.182;2023-01-25T06:16:18;103314.00;;;-1.12;100.00
12969;BME280;6549;53.128;8.182;2023-01-25T06:19:19;103317.50;;;-1.11;100.00
12969;BME280;6549;53.128;8.182;2023-01-25T06:22:19;103314.22;;;-1.13;100.00
12969;BME280;6549;53.128;8.182;2023-01-25T06:25:20;103305.91;;;-1.12;100.00
12969;BME280;6549;53.128;8.182;2023-01-25T06:28:20;103306.38;;;-1.15;100.00
12969;BME280;6549;53.128;8.182;2023-01-25T06:31:20;103319.53;;;-1.18;100.00
12969;BME280;6549;53.128;8.182;2023-01-25T06:34:21;103314.41;;;-1.20;100.00
12969;BME280;6549;53.128;8.182;2023-01-25T06:37:23;103313.81;;;-1.22;100.00
12969;BME280;6549;53.128;8.182;2023-01-25T06:40:24;103316.19;;;-1.25;100.00
12969;BME280;6549;53.128;8.182;2023-01-25T06:43:24;103317.81;;;-1.24;100.00
12969;BME280;6549;53.128;8.182;2023-01-25T06:46:25;103317.56;;;-1.23;100.00
12969;BME280;6549;53.128;8.182;2023-01-25T06:49:25;103317.25;;;-1.26;100.00
12969;BME280;6549;53.128;8.182;2023-01-25T06:52:25;103313.50;;;-1.25;100.00
12969;BME280;6549;53.128;8.182;2023-01-25T06:55:26;103310.47;;;-1.29;100.00
12969;BME280;6549;53.128;8.182;2023-01-25T06:58:27;103305.88;;;-1.28;100.00
12969;BME280;6549;53.128;8.182;2023-01-25T07:01:28;103311.28;;;-1.28;100.00
12969;BME280;6549;53.128;8.182;2023-01-25T07:04:29;103302.38;;;-1.29;100.00
12969;BME280;6549;53.128;8.182;2023-01-25T07:07:29;103293.94;;;-1.32;100.00
12969;BME280;6549;53.128;8.182;2023-01-25T07:10:30;103282.91;;;-1.31;100.00
12969;BME280;6549;53.128;8.182;2023-01-25T07:13:32;103287.25;;;-1.30;100.00
12969;BME280;6549;53.128;8.182;2023-01-25T07:16:33;103284.53;;;-1.30;100.00
12969;BME280;6549;53.128;8.182;2023-01-25T07:19:36;103288.78;;;-1.34;100.00
12969;BME280;6549;53.128;8.182;2023-01-25T07:22:36;103281.53;;;-1.33;100.00
12969;BME280;6549;53.128;8.182;2023-01-25T07:25:36;103272.03;;;-1.36;100.00
12969;BME280;6549;53.128;8.182;2023-01-25T07:28:36;103278.47;;;-1.37;100.00
12969;BME280;6549;53.128;8.182;2023-01-25T07:31:37;103283.13;;;-1.32;100.00
12969;BME280;6549;53.128;8.182;2023-01-25T07:34:37;103284.22;;;-1.33;100.00
12969;BME280;6549;53.128;8.182;2023-01-25T07:37:37;103272.09;;;-1.31;100.00
12969;BME280;6549;53.128;8.182;2023-01-25T07:40:38;103271.28;;;-1.31;100.00
12969;BME280;6549;53.128;8.182;2023-01-25T07:43:38;103266.47;;;-1.29;100.00
12969;BME280;6549;53.128;8.182;2023-01-25T07:46:39;103258.94;;;-1.27;100.00
12969;BME280;6549;53.128;8.182;2023-01-25T07:49:39;103273.03;;;-1.25;100.00
12969;BME280;6549;53.128;8.182;2023-01-25T07:52:39;103259.03;;;-1.22;100.00
12969;BME280;6549;53.128;8.182;2023-01-25T07:55:40;103251.94;;;-1.28;100.00
12969;BME280;6549;53.128;8.182;2023-01-25T07:58:41;103258.06;;;-1.33;100.00
12969;BME280;6549;53.128;8.182;2023-01-25T08:01:41;103248.88;;;-1.32;100.00
12969;BME280;6549;53.128;8.182;2023-01-25T08:04:41;103253.00;;;-1.29;100.00
12969;BME280;6549;53.128;8.182;2023-01-25T08:07:42;103256.00;;;-1.26;100.00
12969;BME280;6549;53.128;8.182;2023-01-25T08:10:42;103266.47;;;-1.29;100.00
12969;BME280;6549;53.128;8.182;2023-01-25T08:13:43;103260.03;;;-1.28;100.00
12969;BME280;6549;53.128;8.182;2023-01-25T08:16:45;103251.94;;;-1.28;100.00
12969;BME280;6549;53.128;8.182;2023-01-25T08:19:46;103255.19;;;-1.26;100.00
12969;BME280;6549;53.128;8.182;2023-01-25T08:22:46;103248.47;;;-1.24;100.00
12969;BME280;6549;53.128;8.182;2023-01-25T08:25:46;103250.94;;;-1.22;100.00
12969;BME280;6549;53.128;8.182;2023-01-25T08:28:47;103243.34;;;-1.25;100.00
12969;BME280;6549;53.128;8.182;2023-01-25T08:31:47;103248.97;;;-1.27;100.00
12969;BME280;6549;53.128;8.182;2023-01-25T08:34:47;103237.13;;;-1.26;100.00
12969;BME280;6549;53.128;8.182;2023-01-25T08:37:48;103225.19;;;-1.30;100.00
12969;BME280;6549;53.128;8.182;2023-01-25T08:40:48;103235.16;;;-1.30;100.00
12969;BME280;6549;53.128;8.182;2023-01-25T08:43:50;103233.28;;;-1.30;100.00
12969;BME280;6549;53.128;8.182;2023-01-25T08:46:51;103232.97;;;-1.33;100.00
12969;BME280;6549;53.128;8.182;2023-01-25T08:49:51;103228.88;;;-1.36;100.00
12969;BME280;6549;53.128;8.182;2023-01-25T08:52:54;103218.91;;;-1.36;100.00
12969;BME280;6549;53.128;8.182;2023-01-25T08:55:54;103215.66;;;-1.38;100.00
12969;BME280;6549;53.128;8.182;2023-01-25T08:58:55;103215.88;;;-1.39;100.00
12969;BME280;6549;53.128;8.182;2023-01-25T09:01:55;103220.22;;;-1.38;100.00
12969;BME280;6549;53.128;8.182;2023-01-25T09:04:55;103206.31;;;-1.47;100.00
12969;BME280;6549;53.128;8.182;2023-01-25T09:07:57;103199.78;;;-1.51;100.00
12969;BME280;6549;53.128;8.182;2023-01-25T09:11:02;103208.94;;;-1.52;100.00
12969;BME280;6549;53.128;8.182;2023-01-25T09:14:03;103199.53;;;-1.49;100.00
12969;BME280;6549;53.128;8.182;2023-01-25T09:17:04;103187.44;;;-1.47;100.00
12969;BME280;6549;53.128;8.182;2023-01-25T09:20:06;103192.56;;;-1.45;100.00
12969;BME280;6549;53.128;8.182;2023-01-25T09:23:06;103187.50;;;-1.42;100.00
12969;BME280;6549;53.128;8.182;2023-01-25T09:26:06;103180.00;;;-1.40;100.00
12969;BME280;6549;53.128;8.182;2023-01-25T09:29:08;103176.56;;;-1.35;100.00
12969;BME280;6549;53.128;8.182;2023-01-25T09:32:09;103172.81;;;-1.34;100.00
12969;BME280;6549;53.128;8.182;2023-01-25T09:35:10;103170.44;;;-1.30;100.00
12969;BME280;6549;53.128;8.182;2023-01-25T09:38:10;103175.25;;;-1.32;100.00
12969;BME280;6549;53.128;8.182;2023-01-25T09:44:29;103184.00;;;-1.25;100.00
12969;BME280;6549;53.128;8.182;2023-01-25T09:50:58;103162.75;;;-1.22;100.00
12969;BME280;6549;53.128;8.182;2023-01-25T09:54:03;103160.34;;;-1.18;100.00
12969;BME280;6549;53.128;8.182;2023-01-25T09:57:03;103151.44;;;-1.19;100.00
12969;BME280;6549;53.128;8.182;2023-01-25T10:00:21;103157.41;;;-1.17;100.00
12969;BME280;6549;53.128;8.182;2023-01-25T10:03:26;103157.19;;;-1.15;100.00
12969;BME280;6549;53.128;8.182;2023-01-25T10:06:42;103154.13;;;-1.19;100.00
12969;BME280;6549;53.128;8.182;2023-01-25T10:12:55;103151.28;;;-1.12;100.00
12969;BME280;6549;53.128;8.182;2023-01-25T10:16:02;103143.19;;;-1.12;100.00
12969;BME280;6549;53.128;8.182;2023-01-25T10:22:37;103144.47;;;-1.15;100.00
12969;BME280;6549;53.128;8.182;2023-01-25T10:25:58;103146.69;;;-1.12;100.00
12969;BME280;6549;53.128;8.182;2023-01-25T10:29:07;103135.41;;;-1.09;100.00
12969;BME280;6549;53.128;8.182;2023-01-25T10:32:25;103133.00;;;-1.05;100.00
12969;BME280;6549;53.128;8.182;2023-01-25T10:35:33;103122.97;;;-1.10;100.00
12969;BME280;6549;53.128;8.182;2023-01-25T10:38:40;103117.88;;;-1.06;100.00
12969;BME280;6549;53.128;8.182;2023-01-25T10:41:54;103111.94;;;-1.08;100.00
12969;BME280;6549;53.128;8.182;2023-01-25T10:44:57;103104.09;;;-1.10;100.00
12969;BME280;6549;53.128;8.182;2023-01-25T10:48:01;103097.88;;;-1.10;100.00
12969;BME280;6549;53.128;8.182;2023-01-25T10:51:02;103091.41;;;-1.09;100.00
12969;BME280;6549;53.128;8.182;2023-01-25T10:54:13;103090.13;;;-1.07;100.00
12969;BME280;6549;53.128;8.182;2023-01-25T10:57:17;103090.41;;;-1.03;100.00
12969;BME280;6549;53.128;8.182;2023-01-25T11:00:34;103078.94;;;-1.15;100.00
12969;BME280;6549;53.128;8.182;2023-01-25T11:06:46;103056.09;;;-1.29;100.00
12969;BME280;6549;53.128;8.182;2023-01-25T11:09:46;103052.00;;;-1.32;100.00
12969;BME280;6549;53.128;8.182;2023-01-25T11:12:47;103046.28;;;-1.36;100.00
12969;BME280;6549;53.128;8.182;2023-01-25T11:15:51;103047.94;;;-1.34;100.00
12969;BME280;6549;53.128;8.182;2023-01-25T11:18:54;103045.47;;;-1.36;100.00
12969;BME280;6549;53.128;8.182;2023-01-25T11:21:55;103041.47;;;-1.33;100.00
12969;BME280;6549;53.128;8.182;2023-01-25T11:24:57;103039.75;;;-1.40;100.00
12969;BME280;6549;53.128;8.182;2023-01-25T11:28:20;103034.38;;;-1.40;100.00
12969;BME280;6549;53.128;8.182;2023-01-25T11:31:21;103018.75;;;-1.38;100.00
12969;BME280;6549;53.128;8.182;2023-01-25T11:34:25;103011.81;;;-1.33;100.00
12969;BME280;6549;53.128;8.182;2023-01-25T11:50:49;102983.13;;;-1.40;100.00
12969;BME280;6549;53.128;8.182;2023-01-25T11:54:34;102967.84;;;-1.34;100.00
12969;BME280;6549;53.128;8.182;2023-01-25T12:01:19;102952.94;;;-1.37;100.00
12969;BME280;6549;53.128;8.182;2023-01-25T12:07:58;102940.28;;;-1.36;100.00
12969;BME280;6549;53.128;8.182;2023-01-25T12:11:15;102927.09;;;-1.32;100.00
12969;BME280;6549;53.128;8.182;2023-01-25T12:14:36;102921.34;;;-1.41;100.00
12969;BME280;6549;53.128;8.182;2023-01-25T12:21:20;102895.25;;;-1.36;100.00
12969;BME280;6549;53.128;8.182;2023-01-25T12:31:22;102882.41;;;-1.28;100.00
12969;BME280;6549;53.128;8.182;2023-01-25T12:34:32;102873.72;;;-1.30;100.00
12969;BME280;6549;53.128;8.182;2023-01-25T12:37:38;102866.16;;;-1.33;100.00
12969;BME280;6549;53.128;8.182;2023-01-25T12:40:52;102859.94;;;-1.34;100.00
12969;BME280;6549;53.128;8.182;2023-01-25T12:44:15;102859.13;;;-1.34;100.00
12969;BME280;6549;53.128;8.182;2023-01-25T12:47:43;102847.81;;;-1.31;100.00
12969;BME280;6549;53.128;8.182;2023-01-25T12:50:57;102845.69;;;-1.29;100.00
12969;BME280;6549;53.128;8.182;2023-01-25T12:53:59;102837.09;;;-1.26;100.00
12969;BME280;6549;53.128;8.182;2023-01-25T13:03:29;102819.22;;;-1.32;100.00
12969;BME280;6549;53.128;8.182;2023-01-25T13:09:55;102809.25;;;-1.32;100.00
12969;BME280;6549;53.128;8.182;2023-01-25T13:12:59;102804.13;;;-1.33;100.00
12969;BME280;6549;53.128;8.182;2023-01-25T13:16:22;102789.56;;;-1.32;100.00
12969;BME280;6549;53.128;8.182;2023-01-25T13:25:44;102789.97;;;-1.46;100.00
12969;BME280;6549;53.128;8.182;2023-01-25T13:28:44;102786.88;;;-1.59;100.00
12969;BME280;6549;53.128;8.182;2023-01-25T13:31:45;102776.91;;;-1.59;100.00
12969;BME280;6549;53.128;8.182;2023-01-25T13:38:02;102760.78;;;-1.54;100.00
12969;BME280;6549;53.128;8.182;2023-01-25T13:41:11;102760.81;;;-1.49;100.00
12969;BME280;6549;53.128;8.182;2023-01-25T13:44:22;102765.69;;;-1.46;100.00
12969;BME280;6549;53.128;8.182;2023-01-25T13:47:32;102769.16;;;-1.50;100.00
12969;BME280;6549;53.128;8.182;2023-01-25T13:50:38;102771.63;;;-1.49;100.00
12969;BME280;6549;53.128;8.182;2023-01-25T13:53:54;102762.72;;;-1.49;100.00
12969;BME280;6549;53.128;8.182;2023-01-25T13:57:06;102757.06;;;-1.48;100.00
12969;BME280;6549;53.128;8.182;2023-01-25T14:00:14;102744.13;;;-1.46;100.00
12969;BME280;6549;53.128;8.182;2023-01-25T14:03:15;102753.00;;;-1.50;100.00
12969;BME280;6549;53.128;8.182;2023-01-25T14:06:37;102748.47;;;-1.45;100.00
12969;BME280;6549;53.128;8.182;2023-01-25T14:09:41;102745.22;;;-1.47;100.00
12969;BME280;6549;53.128;8.182;2023-01-25T14:12:42;102739.84;;;-1.47;100.00
12969;BME280;6549;53.128;8.182;2023-01-25T14:15:54;102733.34;;;-1.46;100.00
12969;BME280;6549;53.128;8.182;2023-01-25T14:18:57;102728.47;;;-1.49;100.00
12969;BME280;6549;53.128;8.182;2023-01-25T14:25:20;102733.31;;;-1.51;100.00
12969;BME280;6549;53.128;8.182;2023-01-25T14:28:25;102731.16;;;-1.49;100.00
12969;BME280;6549;53.128;8.182;2023-01-25T14:31:35;102722.06;;;-1.43;100.00
12969;BME280;6549;53.128;8.182;2023-01-25T14:34:36;102724.19;;;-1.45;100.00
12969;BME280;6549;53.128;8.182;2023-01-25T14:37:41;102723.09;;;-1.49;100.00
12969;BME280;6549;53.128;8.182;2023-01-25T14:40:41;102727.94;;;-1.51;100.00
12969;BME280;6549;53.128;8.182;2023-01-25T14:43:45;102730.88;;;-1.52;100.00
12969;BME280;6549;53.128;8.182;2023-01-25T14:46:46;102723.59;;;-1.52;100.00
12969;BME280;6549;53.128;8.182;2023-01-25T14:49:47;102726.84;;;-1.50;100.00
12969;BME280;6549;53.128;8.182;2023-01-25T14:52:47;102720.34;;;-1.54;100.00
12969;BME280;6549;53.128;8.182;2023-01-25T14:55:48;102721.16;;;-1.53;100.00
12969;BME280;6549;53.128;8.182;2023-01-25T14:58:49;102714.47;;;-1.51;100.00
12969;BME280;6549;53.128;8.182;2023-01-25T15:01:51;102717.09;;;-1.56;100.00
12969;BME280;6549;53.128;8.182;2023-01-25T15:05:02;102719.22;;;-1.58;100.00
12969;BME280;6549;53.128;8.182;2023-01-25T15:14:47;102721.88;;;-1.63;100.00
12969;BME280;6549;53.128;8.182;2023-01-25T15:17:48;102707.34;;;-1.62;100.00
12969;BME280;6549;53.128;8.182;2023-01-25T15:20:50;102716.00;;;-1.60;100.00
12969;BME280;6549;53.128;8.182;2023-01-25T15:23:52;102719.78;;;-1.56;100.00
12969;BME280;6549;53.128;8.182;2023-01-25T15:26:53;102713.28;;;-1.60;100.00
12969;BME280;6549;53.128;8.182;2023-01-25T15:29:54;102710.06;;;-1.57;100.00
12969;BME280;6549;53.128;8.182;2023-01-25T15:32:54;102704.09;;;-1.64;100.00
12969;BME280;6549;53.128;8.182;2023-01-25T15:35:55;102693.81;;;-1.67;100.00
12969;BME280;6549;53.128;8.182;2023-01-25T15:38:55;102680.91;;;-1.65;100.00
12969;BME280;6549;53.128;8.182;2023-01-25T15:41:56;102674.13;;;-1.67;100.00
12969;BME280;6549;53.128;8.182;2023-01-25T15:44:56;102680.91;;;-1.65;100.00
12969;BME280;6549;53.128;8.182;2023-01-25T15:47:57;102674.47;;;-1.59;100.00
12969;BME280;6549;53.128;8.182;2023-01-25T15:50:58;102675.50;;;-1.65;100.00
12969;BME280;6549;53.128;8.182;2023-01-25T15:53:59;102667.38;;;-1.70;100.00
12969;BME280;6549;53.128;8.182;2023-01-25T15:56:59;102659.03;;;-1.68;100.00
12969;BME280;6549;53.128;8.182;2023-01-25T16:00:00;102644.44;;;-1.72;100.00
12969;BME280;6549;53.128;8.182;2023-01-25T16:03:00;102644.13;;;-1.76;100.00
12969;BME280;6549;53.128;8.182;2023-01-25T16:06:12;102647.41;;;-1.74;100.00
12969;BME280;6549;53.128;8.182;2023-01-25T16:09:25;102656.78;;;-1.76;100.00
12969;BME280;6549;53.128;8.182;2023-01-25T16:12:27;102649.28;;;-1.74;100.00
12969;BME280;6549;53.128;8.182;2023-01-25T16:15:27;102643.88;;;-1.74;100.00
12969;BME280;6549;53.128;8.182;2023-01-25T16:18:28;102650.91;;;-1.73;100.00
12969;BME280;6549;53.128;8.182;2023-01-25T16:21:28;102659.03;;;-1.68;100.00
12969;BME280;6549;53.128;8.182;2023-01-25T16:24:28;102668.78;;;-1.62;100.00
12969;BME280;6549;53.128;8.182;2023-01-25T16:27:29;102676.00;;;-1.68;100.00
12969;BME280;6549;53.128;8.182;2023-01-25T16:30:34;102672.50;;;-1.68;100.00
12969;BME280;6549;53.128;8.182;2023-01-25T16:33:35;102680.31;;;-1.67;100.00
12969;BME280;6549;53.128;8.182;2023-01-25T16:36:35;102674.63;;;-1.70;100.00
12969;BME280;6549;53.128;8.182;2023-01-25T16:39:35;102681.91;;;-1.71;100.00
12969;BME280;6549;53.128;8.182;2023-01-25T16:42:36;102688.38;;;-1.72;100.00
12969;BME280;6549;53.128;8.182;2023-01-25T16:45:36;102685.13;;;-1.74;100.00
12969;BME280;6549;53.128;8.182;2023-01-25T16:48:37;102679.75;;;-1.74;100.00
12969;BME280;6549;53.128;8.182;2023-01-25T16:51:37;102664.09;;;-1.72;100.00
12969;BME280;6549;53.128;8.182;2023-01-25T16:54:37;102652.78;;;-1.74;100.00
12969;BME280;6549;53.128;8.182;2023-01-25T16:57:41;102649.03;;;-1.73;100.00
12969;BME280;6549;53.128;8.182;2023-01-25T17:00:42;102645.50;;;-1.73;100.00
12969;BME280;6549;53.128;8.182;2023-01-25T17:03:43;102641.47;;;-1.71;100.00
12969;BME280;6549;53.128;8.182;2023-01-25T17:06:45;102640.66;;;-1.71;100.00
12969;BME280;6549;53.128;8.182;2023-01-25T17:09:46;102628.56;;;-1.69;100.00
12969;BME280;6549;53.128;8.182;2023-01-25T17:12:46;102612.66;;;-1.70;100.00
12969;BME280;6549;53.128;8.182;2023-01-25T17:15:47;102607.81;;;-1.68;100.00
12969;BME280;6549;53.128;8.182;2023-01-25T17:18:52;102606.50;;;-1.66;100.00
12969;BME280;6549;53.128;8.182;2023-01-25T17:21:53;102596.47;;;-1.70;100.00